sensor_id;sensor_type;location;lat;lon;timestamp;P1;durP1;ratioP1;P2;durP2;ratioP2
58214;SDS011;44011;52.218;1.480;2023-08-21T00:01:39;3.60;;;2.35;;
58214;SDS011;44011;52.218;1.480;2023-08-21T00:04:04;4.75;;;2.20;;
58214;SDS011;44011;52.218;1.480;2023-08-21T00:06:30;4.43;;;2.30;;
58214;SDS011;44011;52.218;1.480;2023-08-21T00:08:55;5.03;;;2.40;;
58214;SDS011;44011;52.218;1.480;2023-08-21T00:11:20;3.40;;;2.33;;
58214;SDS011;44011;52.218;1.480;2023-08-21T00:13:45;4.22;;;2.30;;
58214;SDS011;44011;52.218;1.480;2023-08-21T00:16:13;7.18;;;2.28;;
58214;SDS011;44011;52.218;1.480;2023-08-21T00:18:38;3.33;;;2.33;;
58214;SDS011;44011;52.218;1.480;2023-08-21T00:21:03;5.50;;;2.55;;
58214;SDS011;44011;52.218;1.480;2023-08-21T00:23:28;4.97;;;2.57;;
58214;SDS011;44011;52.218;1.480;2023-08-21T00:25:53;7.20;;;2.87;;
58214;SDS011;44011;52.218;1.480;2023-08-21T00:28:19;5.70;;;2.47;;
58214;SDS011;44011;52.218;1.480;2023-08-21T00:30:44;4.13;;;2.73;;
58214;SDS011;44011;52.218;1.480;2023-08-21T00:33:09;5.67;;;3.17;;
58214;SDS011;44011;52.218;1.480;2023-08-21T00:35:34;4.40;;;2.30;;
58214;SDS011;44011;52.218;1.480;2023-08-21T00:37:59;5.70;;;2.23;;
58214;SDS011;44011;52.218;1.480;2023-08-21T00:40:24;4.10;;;2.27;;
58214;SDS011;44011;52.218;1.480;2023-08-21T00:42:50;6.30;;;2.17;;
58214;SDS011;44011;52.218;1.480;2023-08-21T00:45:15;4.07;;;2.10;;
58214;SDS011;44011;52.218;1.480;2023-08-21T00:47:41;3.55;;;2.13;;
58214;SDS011;44011;52.218;1.480;2023-08-21T00:50:07;3.33;;;2.05;;
58214;SDS011;44011;52.218;1.480;2023-08-21T00:52:34;3.85;;;2.22;;
58214;SDS011;44011;52.218;1.480;2023-08-21T00:55:00;5.43;;;2.00;;
58214;SDS011;44011;52.218;1.480;2023-08-21T00:57:25;10.13;;;2.65;;
58214;SDS011;44011;52.218;1.480;2023-08-21T00:59:51;3.28;;;2.10;;
58214;SDS011;44011;52.218;1.480;2023-08-21T01:02:16;5.80;;;2.15;;
58214;SDS011;44011;52.218;1.480;2023-08-21T01:04:44;5.25;;;2.53;;
58214;SDS011;44011;52.218;1.480;2023-08-21T01:07:09;5.33;;;2.27;;
58214;SDS011;44011;52.218;1.480;2023-08-21T01:09:53;4.68;;;2.40;;
58214;SDS011;44011;52.218;1.480;2023-08-21T01:12:33;9.45;;;2.63;;
58214;SDS011;44011;52.218;1.480;2023-08-21T01:15:00;3.75;;;2.20;;
58214;SDS011;44011;52.218;1.480;2023-08-21T01:17:28;4.22;;;2.22;;
58214;SDS011;44011;52.218;1.480;2023-08-21T01:19:54;2.38;;;2.00;;
58214;SDS011;44011;52.218;1.480;2023-08-21T01:22:19;5.40;;;2.50;;
58214;SDS011;44011;52.218;1.480;2023-08-21T01:24:44;6.70;;;2.80;;
58214;SDS011;44011;52.218;1.480;2023-08-21T01:27:10;5.20;;;2.53;;
58214;SDS011;44011;52.218;1.480;2023-08-21T01:29:35;2.65;;;2.33;;
58214;SDS011;44011;52.218;1.480;2023-08-21T01:34:26;4.27;;;2.00;;
58214;SDS011;44011;52.218;1.480;2023-08-21T01:36:53;4.85;;;2.25;;
58214;SDS011;44011;52.218;1.480;2023-08-21T01:39:19;7.28;;;2.50;;
58214;SDS011;44011;52.218;1.480;2023-08-21T01:41:44;5.47;;;2.63;;
58214;SDS011;44011;52.218;1.480;2023-08-21T01:44:09;5.93;;;2.27;;
58214;SDS011;44011;52.218;1.480;2023-08-21T01:46:34;4.65;;;2.65;;
58214;SDS011;44011;52.218;1.480;2023-08-21T01:48:59;4.03;;;2.30;;
58214;SDS011;44011;52.218;1.480;2023-08-21T01:51:25;4.80;;;2.20;;
58214;SDS011;44011;52.218;1.480;2023-08-21T01:53:50;3.37;;;2.30;;
58214;SDS011;44011;52.218;1.480;2023-08-21T01:56:15;5.93;;;2.57;;
58214;SDS011;44011;52.218;1.480;2023-08-21T01:58:40;7.10;;;2.40;;
58214;SDS011;44011;52.218;1.480;2023-08-21T02:01:05;5.00;;;2.50;;
58214;SDS011;44011;52.218;1.480;2023-08-21T02:03:31;5.73;;;2.53;;
58214;SDS011;44011;52.218;1.480;2023-08-21T02:05:56;2.83;;;2.00;;
58214;SDS011;44011;52.218;1.480;2023-08-21T02:08:25;5.80;;;2.53;;
58214;SDS011;44011;52.218;1.480;2023-08-21T02:10:52;4.95;;;2.13;;
58214;SDS011;44011;52.218;1.480;2023-08-21T02:13:17;2.97;;;1.95;;
58214;SDS011;44011;52.218;1.480;2023-08-21T02:15:43;3.65;;;2.63;;
58214;SDS011;44011;52.218;1.480;2023-08-21T02:18:08;4.93;;;1.98;;
58214;SDS011;44011;52.218;1.480;2023-08-21T02:20:33;4.38;;;2.30;;
58214;SDS011;44011;52.218;1.480;2023-08-21T02:22:58;5.20;;;3.03;;
58214;SDS011;44011;52.218;1.480;2023-08-21T02:25:24;5.55;;;2.38;;
58214;SDS011;44011;52.218;1.480;2023-08-21T02:27:49;3.47;;;2.20;;
58214;SDS011;44011;52.218;1.480;2023-08-21T02:30:14;2.77;;;2.03;;
58214;SDS011;44011;52.218;1.480;2023-08-21T02:32:39;5.40;;;2.40;;
58214;SDS011;44011;52.218;1.480;2023-08-21T02:35:05;4.05;;;2.35;;
58214;SDS011;44011;52.218;1.480;2023-08-21T02:37:31;4.40;;;2.53;;
58214;SDS011;44011;52.218;1.480;2023-08-21T02:39:56;5.67;;;2.20;;
58214;SDS011;44011;52.218;1.480;2023-08-21T02:42:21;5.63;;;2.50;;
58214;SDS011;44011;52.218;1.480;2023-08-21T02:44:46;6.55;;;2.67;;
58214;SDS011;44011;52.218;1.480;2023-08-21T02:47:11;6.25;;;2.38;;
58214;SDS011;44011;52.218;1.480;2023-08-21T02:49:37;6.43;;;2.55;;
58214;SDS011;44011;52.218;1.480;2023-08-21T02:52:02;5.20;;;2.20;;
58214;SDS011;44011;52.218;1.480;2023-08-21T02:54:27;3.78;;;2.20;;
58214;SDS011;44011;52.218;1.480;2023-08-21T02:56:52;7.27;;;2.23;;
58214;SDS011;44011;52.218;1.480;2023-08-21T02:59:18;8.47;;;2.50;;
58214;SDS011;44011;52.218;1.480;2023-08-21T03:01:43;3.50;;;2.13;;
58214;SDS011;44011;52.218;1.480;2023-08-21T03:04:08;3.77;;;2.17;;
58214;SDS011;44011;52.218;1.480;2023-08-21T03:06:33;4.90;;;2.65;;
58214;SDS011;44011;52.218;1.480;2023-08-21T03:08:58;3.95;;;2.10;;
58214;SDS011;44011;52.218;1.480;2023-08-21T03:11:24;7.47;;;2.83;;
58214;SDS011;44011;52.218;1.480;2023-08-21T03:13:49;3.35;;;2.30;;
58214;SDS011;44011;52.218;1.480;2023-08-21T03:16:14;5.00;;;2.20;;
58214;SDS011;44011;52.218;1.480;2023-08-21T03:18:56;4.68;;;2.40;;
58214;SDS011;44011;52.218;1.480;2023-08-21T03:21:22;3.72;;;2.20;;
58214;SDS011;44011;52.218;1.480;2023-08-21T03:23:49;3.42;;;2.03;;
58214;SDS011;44011;52.218;1.480;2023-08-21T03:26:14;7.05;;;2.30;;
58214;SDS011;44011;52.218;1.480;2023-08-21T03:28:39;7.37;;;3.20;;
58214;SDS011;44011;52.218;1.480;2023-08-21T03:31:04;3.67;;;2.20;;
58214;SDS011;44011;52.218;1.480;2023-08-21T03:33:30;5.70;;;2.17;;
58214;SDS011;44011;52.218;1.480;2023-08-21T03:35:55;3.30;;;2.17;;
58214;SDS011;44011;52.218;1.480;2023-08-21T03:38:20;5.57;;;2.38;;
58214;SDS011;44011;52.218;1.480;2023-08-21T03:40:45;3.57;;;2.17;;
58214;SDS011;44011;52.218;1.480;2023-08-21T03:43:11;10.20;;;3.30;;
58214;SDS011;44011;52.218;1.480;2023-08-21T03:45:36;7.63;;;2.63;;
58214;SDS011;44011;52.218;1.480;2023-08-21T03:48:01;4.70;;;2.87;;
58214;SDS011;44011;52.218;1.480;2023-08-21T03:50:27;6.53;;;2.45;;
58214;SDS011;44011;52.218;1.480;2023-08-21T03:52:52;5.72;;;2.65;;
58214;SDS011;44011;52.218;1.480;2023-08-21T03:55:17;7.03;;;2.83;;
58214;SDS011;44011;52.218;1.480;2023-08-21T03:57:42;5.57;;;2.47;;
58214;SDS011;44011;52.218;1.480;2023-08-21T04:00:08;6.13;;;3.00;;
58214;SDS011;44011;52.218;1.480;2023-08-21T04:02:34;10.25;;;2.83;;
58214;SDS011;44011;52.218;1.480;2023-08-21T04:04:59;9.97;;;2.83;;
58214;SDS011;44011;52.218;1.480;2023-08-21T04:07:24;7.00;;;2.80;;
58214;SDS011;44011;52.218;1.480;2023-08-21T04:09:49;5.73;;;3.13;;
58214;SDS011;44011;52.218;1.480;2023-08-21T04:12:14;4.97;;;2.93;;
58214;SDS011;44011;52.218;1.480;2023-08-21T04:14:40;5.47;;;3.23;;
58214;SDS011;44011;52.218;1.480;2023-08-21T04:17:05;6.70;;;2.83;;
58214;SDS011;44011;52.218;1.480;2023-08-21T04:19:30;6.72;;;3.40;;
58214;SDS011;44011;52.218;1.480;2023-08-21T04:21:57;5.75;;;3.03;;
58214;SDS011;44011;52.218;1.480;2023-08-21T04:24:23;7.38;;;3.38;;
58214;SDS011;44011;52.218;1.480;2023-08-21T04:26:49;5.50;;;2.70;;
58214;SDS011;44011;52.218;1.480;2023-08-21T04:29:14;6.30;;;3.13;;
58214;SDS011;44011;52.218;1.480;2023-08-21T04:31:39;3.57;;;2.73;;
58214;SDS011;44011;52.218;1.480;2023-08-21T04:34:04;5.32;;;2.60;;
58214;SDS011;44011;52.218;1.480;2023-08-21T04:36:29;6.87;;;2.77;;
58214;SDS011;44011;52.218;1.480;2023-08-21T04:38:55;9.10;;;3.20;;
58214;SDS011;44011;52.218;1.480;2023-08-21T04:41:20;5.70;;;2.72;;
58214;SDS011;44011;52.218;1.480;2023-08-21T04:43:45;4.70;;;2.72;;
58214;SDS011;44011;52.218;1.480;2023-08-21T04:46:10;6.00;;;2.97;;
58214;SDS011;44011;52.218;1.480;2023-08-21T04:48:35;4.72;;;2.60;;
58214;SDS011;44011;52.218;1.480;2023-08-21T04:51:01;3.97;;;3.10;;
58214;SDS011;44011;52.218;1.480;2023-08-21T04:53:26;5.50;;;2.67;;
58214;SDS011;44011;52.218;1.480;2023-08-21T04:55:51;5.47;;;2.50;;
58214;SDS011;44011;52.218;1.480;2023-08-21T04:58:16;5.93;;;2.73;;
58214;SDS011;44011;52.218;1.480;2023-08-21T05:00:44;5.65;;;2.60;;
58214;SDS011;44011;52.218;1.480;2023-08-21T05:03:09;4.38;;;2.78;;
58214;SDS011;44011;52.218;1.480;2023-08-21T05:05:35;4.43;;;2.93;;
58214;SDS011;44011;52.218;1.480;2023-08-21T05:08:00;7.82;;;3.00;;
58214;SDS011;44011;52.218;1.480;2023-08-21T05:10:25;4.20;;;2.95;;
58214;SDS011;44011;52.218;1.480;2023-08-21T05:12:50;6.57;;;3.03;;
58214;SDS011;44011;52.218;1.480;2023-08-21T05:15:15;3.53;;;2.60;;
58214;SDS011;44011;52.218;1.480;2023-08-21T05:17:41;4.30;;;2.65;;
58214;SDS011;44011;52.218;1.480;2023-08-21T05:20:07;8.07;;;3.15;;
58214;SDS011;44011;52.218;1.480;2023-08-21T05:22:32;5.80;;;2.60;;
58214;SDS011;44011;52.218;1.480;2023-08-21T05:24:57;4.60;;;2.63;;
58214;SDS011;44011;52.218;1.480;2023-08-21T05:27:22;7.50;;;2.30;;
58214;SDS011;44011;52.218;1.480;2023-08-21T05:29:47;5.53;;;2.67;;
58214;SDS011;44011;52.218;1.480;2023-08-21T05:32:15;8.00;;;2.28;;
58214;SDS011;44011;52.218;1.480;2023-08-21T05:34:41;6.00;;;2.28;;
58214;SDS011;44011;52.218;1.480;2023-08-21T05:37:06;6.18;;;2.28;;
58214;SDS011;44011;52.218;1.480;2023-08-21T05:39:32;3.92;;;2.63;;
58214;SDS011;44011;52.218;1.480;2023-08-21T05:41:57;2.30;;;2.10;;
58214;SDS011;44011;52.218;1.480;2023-08-21T05:44:23;5.38;;;2.58;;
58214;SDS011;44011;52.218;1.480;2023-08-21T05:46:48;4.70;;;2.47;;
58214;SDS011;44011;52.218;1.480;2023-08-21T05:49:14;6.40;;;2.45;;
58214;SDS011;44011;52.218;1.480;2023-08-21T05:51:39;8.63;;;2.43;;
58214;SDS011;44011;52.218;1.480;2023-08-21T05:54:04;3.73;;;2.60;;
58214;SDS011;44011;52.218;1.480;2023-08-21T05:56:29;7.05;;;3.72;;
58214;SDS011;44011;52.218;1.480;2023-08-21T05:58:55;3.75;;;2.70;;
58214;SDS011;44011;52.218;1.480;2023-08-21T06:01:20;3.42;;;2.60;;
58214;SDS011;44011;52.218;1.480;2023-08-21T06:03:45;8.80;;;2.97;;
58214;SDS011;44011;52.218;1.480;2023-08-21T06:06:10;5.93;;;2.60;;
58214;SDS011;44011;52.218;1.480;2023-08-21T06:08:36;5.30;;;2.22;;
58214;SDS011;44011;52.218;1.480;2023-08-21T06:11:01;6.70;;;2.88;;
58214;SDS011;44011;52.218;1.480;2023-08-21T06:13:26;5.90;;;2.72;;
58214;SDS011;44011;52.218;1.480;2023-08-21T06:15:52;5.60;;;3.17;;
58214;SDS011;44011;52.218;1.480;2023-08-21T06:18:17;4.47;;;2.47;;
58214;SDS011;44011;52.218;1.480;2023-08-21T06:20:43;4.43;;;2.57;;
58214;SDS011;44011;52.218;1.480;2023-08-21T06:23:11;5.05;;;2.90;;
58214;SDS011;44011;52.218;1.480;2023-08-21T06:25:36;7.03;;;2.72;;
58214;SDS011;44011;52.218;1.480;2023-08-21T06:28:02;7.78;;;2.70;;
58214;SDS011;44011;52.218;1.480;2023-08-21T06:30:27;5.97;;;2.70;;
58214;SDS011;44011;52.218;1.480;2023-08-21T06:32:52;6.70;;;2.30;;
58214;SDS011;44011;52.218;1.480;2023-08-21T06:35:18;6.72;;;2.67;;
58214;SDS011;44011;52.218;1.480;2023-08-21T06:37:43;4.20;;;2.50;;
58214;SDS011;44011;52.218;1.480;2023-08-21T06:40:08;5.65;;;2.67;;
58214;SDS011;44011;52.218;1.480;2023-08-21T06:42:33;6.18;;;2.53;;
58214;SDS011;44011;52.218;1.480;2023-08-21T06:44:59;9.20;;;2.80;;
58214;SDS011;44011;52.218;1.480;2023-08-21T06:47:24;4.97;;;2.73;;
58214;SDS011;44011;52.218;1.480;2023-08-21T06:49:49;5.93;;;2.63;;
58214;SDS011;44011;52.218;1.480;2023-08-21T06:52:14;7.63;;;2.93;;
58214;SDS011;44011;52.218;1.480;2023-08-21T06:54:39;5.50;;;2.40;;
58214;SDS011;44011;52.218;1.480;2023-08-21T06:57:05;3.87;;;2.40;;
58214;SDS011;44011;52.218;1.480;2023-08-21T06:59:30;7.97;;;2.97;;
58214;SDS011;44011;52.218;1.480;2023-08-21T07:01:55;5.37;;;2.23;;
58214;SDS011;44011;52.218;1.480;2023-08-21T07:04:20;5.67;;;2.93;;
58214;SDS011;44011;52.218;1.480;2023-08-21T07:06:45;8.23;;;3.03;;
58214;SDS011;44011;52.218;1.480;2023-08-21T07:09:11;7.23;;;2.80;;
58214;SDS011;44011;52.218;1.480;2023-08-21T07:11:36;6.60;;;2.47;;
58214;SDS011;44011;52.218;1.480;2023-08-21T07:14:01;3.30;;;1.90;;
58214;SDS011;44011;52.218;1.480;2023-08-21T07:16:26;10.45;;;3.22;;
58214;SDS011;44011;52.218;1.480;2023-08-21T07:18:52;3.35;;;2.03;;
58214;SDS011;44011;52.218;1.480;2023-08-21T07:21:17;8.57;;;2.55;;
58214;SDS011;44011;52.218;1.480;2023-08-21T07:23:42;5.00;;;2.40;;
58214;SDS011;44011;52.218;1.480;2023-08-21T07:26:07;4.50;;;2.23;;
58214;SDS011;44011;52.218;1.480;2023-08-21T07:28:33;5.28;;;2.67;;
58214;SDS011;44011;52.218;1.480;2023-08-21T07:30:58;5.28;;;2.13;;
58214;SDS011;44011;52.218;1.480;2023-08-21T07:33:24;8.45;;;2.63;;
58214;SDS011;44011;52.218;1.480;2023-08-21T07:36:05;11.90;;;2.50;;
58214;SDS011;44011;52.218;1.480;2023-08-21T07:38:31;3.65;;;1.77;;
58214;SDS011;44011;52.218;1.480;2023-08-21T07:41:03;8.15;;;2.20;;
58214;SDS011;44011;52.218;1.480;2023-08-21T07:43:29;5.65;;;2.40;;
58214;SDS011;44011;52.218;1.480;2023-08-21T07:45:54;3.92;;;2.15;;
58214;SDS011;44011;52.218;1.480;2023-08-21T07:48:19;4.72;;;1.85;;
58214;SDS011;44011;52.218;1.480;2023-08-21T07:50:54;5.50;;;2.57;;
58214;SDS011;44011;52.218;1.480;2023-08-21T07:53:19;13.67;;;3.27;;
58214;SDS011;44011;52.218;1.480;2023-08-21T07:55:45;3.88;;;1.98;;
58214;SDS011;44011;52.218;1.480;2023-08-21T07:58:10;3.38;;;2.00;;
58214;SDS011;44011;52.218;1.480;2023-08-21T08:00:36;5.88;;;2.20;;
58214;SDS011;44011;52.218;1.480;2023-08-21T08:03:01;4.73;;;2.37;;
58214;SDS011;44011;52.218;1.480;2023-08-21T08:05:26;7.25;;;2.20;;
58214;SDS011;44011;52.218;1.480;2023-08-21T08:07:51;3.97;;;2.17;;
58214;SDS011;44011;52.218;1.480;2023-08-21T08:10:16;4.30;;;2.17;;
58214;SDS011;44011;52.218;1.480;2023-08-21T08:12:42;5.50;;;2.57;;
58214;SDS011;44011;52.218;1.480;2023-08-21T08:15:09;6.35;;;2.20;;
58214;SDS011;44011;52.218;1.480;2023-08-21T08:17:35;3.35;;;2.03;;
58214;SDS011;44011;52.218;1.480;2023-08-21T08:20:00;6.33;;;2.80;;
58214;SDS011;44011;52.218;1.480;2023-08-21T08:22:25;4.57;;;2.17;;
58214;SDS011;44011;52.218;1.480;2023-08-21T08:24:50;4.27;;;2.17;;
58214;SDS011;44011;52.218;1.480;2023-08-21T08:27:15;5.13;;;2.03;;
58214;SDS011;44011;52.218;1.480;2023-08-21T08:29:40;4.53;;;1.57;;
58214;SDS011;44011;52.218;1.480;2023-08-21T08:32:06;2.93;;;1.53;;
58214;SDS011;44011;52.218;1.480;2023-08-21T08:34:31;4.17;;;1.40;;
58214;SDS011;44011;52.218;1.480;2023-08-21T08:36:56;4.70;;;2.00;;
58214;SDS011;44011;52.218;1.480;2023-08-21T08:39:21;4.77;;;1.93;;
58214;SDS011;44011;52.218;1.480;2023-08-21T08:41:58;7.30;;;2.17;;
58214;SDS011;44011;52.218;1.480;2023-08-21T08:44:24;3.05;;;1.80;;
58214;SDS011;44011;52.218;1.480;2023-08-21T08:46:51;5.75;;;1.73;;
58214;SDS011;44011;52.218;1.480;2023-08-21T08:49:16;3.33;;;1.45;;
58214;SDS011;44011;52.218;1.480;2023-08-21T08:51:42;6.18;;;1.83;;
58214;SDS011;44011;52.218;1.480;2023-08-21T08:54:07;3.53;;;1.48;;
58214;SDS011;44011;52.218;1.480;2023-08-21T08:56:33;3.85;;;1.45;;
58214;SDS011;44011;52.218;1.480;2023-08-21T08:58:58;4.25;;;2.00;;
58214;SDS011;44011;52.218;1.480;2023-08-21T09:01:24;4.72;;;1.77;;
58214;SDS011;44011;52.218;1.480;2023-08-21T09:03:49;5.67;;;1.40;;
58214;SDS011;44011;52.218;1.480;2023-08-21T09:06:15;7.90;;;1.60;;
58214;SDS011;44011;52.218;1.480;2023-08-21T09:08:44;3.17;;;1.50;;
58214;SDS011;44011;52.218;1.480;2023-08-21T09:11:17;6.35;;;1.70;;
58214;SDS011;44011;52.218;1.480;2023-08-21T09:13:43;6.28;;;1.45;;
58214;SDS011;44011;52.218;1.480;2023-08-21T09:16:08;3.50;;;1.52;;
58214;SDS011;44011;52.218;1.480;2023-08-21T09:18:34;4.55;;;1.73;;
58214;SDS011;44011;52.218;1.480;2023-08-21T09:21:01;4.07;;;1.50;;
58214;SDS011;44011;52.218;1.480;2023-08-21T09:23:27;4.82;;;1.40;;
58214;SDS011;44011;52.218;1.480;2023-08-21T09:25:53;5.03;;;1.60;;
58214;SDS011;44011;52.218;1.480;2023-08-21T09:28:19;4.50;;;1.40;;
58214;SDS011;44011;52.218;1.480;2023-08-21T09:30:46;4.25;;;1.42;;
58214;SDS011;44011;52.218;1.480;2023-08-21T09:33:12;4.70;;;1.10;;
58214;SDS011;44011;52.218;1.480;2023-08-21T09:35:37;4.43;;;1.63;;
58214;SDS011;44011;52.218;1.480;2023-08-21T09:38:02;4.07;;;1.83;;
58214;SDS011;44011;52.218;1.480;2023-08-21T09:40:28;2.47;;;1.40;;
58214;SDS011;44011;52.218;1.480;2023-08-21T09:42:54;2.80;;;1.40;;
58214;SDS011;44011;52.218;1.480;2023-08-21T09:45:21;5.85;;;1.50;;
58214;SDS011;44011;52.218;1.480;2023-08-21T09:47:47;4.07;;;1.35;;
58214;SDS011;44011;52.218;1.480;2023-08-21T09:50:12;3.10;;;1.40;;
58214;SDS011;44011;52.218;1.480;2023-08-21T09:52:37;3.72;;;1.45;;
58214;SDS011;44011;52.218;1.480;2023-08-21T09:55:03;2.00;;;1.30;;
58214;SDS011;44011;52.218;1.480;2023-08-21T09:57:29;4.65;;;1.40;;
58214;SDS011;44011;52.218;1.480;2023-08-21T09:59:54;3.88;;;1.55;;
58214;SDS011;44011;52.218;1.480;2023-08-21T10:02:20;2.38;;;1.30;;
58214;SDS011;44011;52.218;1.480;2023-08-21T10:04:46;2.92;;;1.40;;
58214;SDS011;44011;52.218;1.480;2023-08-21T10:07:13;3.63;;;1.58;;
58214;SDS011;44011;52.218;1.480;2023-08-21T10:09:41;3.80;;;1.30;;
58214;SDS011;44011;52.218;1.480;2023-08-21T10:12:08;3.15;;;1.63;;
58214;SDS011;44011;52.218;1.480;2023-08-21T10:14:34;1.65;;;1.13;;
58214;SDS011;44011;52.218;1.480;2023-08-21T10:16:59;4.18;;;1.45;;
58214;SDS011;44011;52.218;1.480;2023-08-21T10:19:30;4.27;;;1.60;;
58214;SDS011;44011;52.218;1.480;2023-08-21T10:21:55;4.70;;;1.67;;
58214;SDS011;44011;52.218;1.480;2023-08-21T10:24:36;2.50;;;1.40;;
58214;SDS011;44011;52.218;1.480;2023-08-21T10:27:06;3.38;;;1.42;;
58214;SDS011;44011;52.218;1.480;2023-08-21T10:29:31;3.55;;;1.50;;
58214;SDS011;44011;52.218;1.480;2023-08-21T10:32:00;2.60;;;1.37;;
58214;SDS011;44011;52.218;1.480;2023-08-21T10:34:30;3.65;;;1.38;;
58214;SDS011;44011;52.218;1.480;2023-08-21T10:39:27;3.15;;;1.83;;
58214;SDS011;44011;52.218;1.480;2023-08-21T10:44:46;6.68;;;1.98;;
58214;SDS011;44011;52.218;1.480;2023-08-21T10:49:40;3.10;;;1.52;;
58214;SDS011;44011;52.218;1.480;2023-08-21T10:52:05;3.63;;;1.73;;
58214;SDS011;44011;52.218;1.480;2023-08-21T10:54:42;6.80;;;1.67;;
58214;SDS011;44011;52.218;1.480;2023-08-21T10:57:07;4.40;;;1.50;;
58214;SDS011;44011;52.218;1.480;2023-08-21T10:59:32;2.63;;;1.40;;
58214;SDS011;44011;52.218;1.480;2023-08-21T11:01:58;5.03;;;2.20;;
58214;SDS011;44011;52.218;1.480;2023-08-21T11:04:23;3.77;;;1.23;;
58214;SDS011;44011;52.218;1.480;2023-08-21T11:06:50;5.07;;;1.60;;
58214;SDS011;44011;52.218;1.480;2023-08-21T11:09:16;3.38;;;1.75;;
58214;SDS011;44011;52.218;1.480;2023-08-21T11:11:43;3.35;;;1.40;;
58214;SDS011;44011;52.218;1.480;2023-08-21T11:14:08;4.78;;;1.75;;
58214;SDS011;44011;52.218;1.480;2023-08-21T11:16:33;7.27;;;1.80;;
58214;SDS011;44011;52.218;1.480;2023-08-21T11:19:02;6.47;;;1.80;;
58214;SDS011;44011;52.218;1.480;2023-08-21T11:21:28;7.63;;;2.10;;
58214;SDS011;44011;52.218;1.480;2023-08-21T11:23:53;2.87;;;1.43;;
58214;SDS011;44011;52.218;1.480;2023-08-21T11:26:18;4.17;;;1.47;;
58214;SDS011;44011;52.218;1.480;2023-08-21T11:28:43;2.70;;;1.40;;
58214;SDS011;44011;52.218;1.480;2023-08-21T11:31:09;2.28;;;1.50;;
58214;SDS011;44011;52.218;1.480;2023-08-21T11:33:37;6.55;;;2.10;;
58214;SDS011;44011;52.218;1.480;2023-08-21T11:36:02;3.17;;;1.30;;
58214;SDS011;44011;52.218;1.480;2023-08-21T11:38:27;3.75;;;1.40;;
58214;SDS011;44011;52.218;1.480;2023-08-21T11:40:56;3.58;;;1.65;;
58214;SDS011;44011;52.218;1.480;2023-08-21T11:43:33;4.82;;;1.45;;
58214;SDS011;44011;52.218;1.480;2023-08-21T11:45:58;2.38;;;1.50;;
58214;SDS011;44011;52.218;1.480;2023-08-21T11:48:23;4.22;;;1.55;;
58214;SDS011;44011;52.218;1.480;2023-08-21T11:50:48;4.53;;;1.90;;
58214;SDS011;44011;52.218;1.480;2023-08-21T11:53:14;5.93;;;2.03;;
58214;SDS011;44011;52.218;1.480;2023-08-21T11:55:39;6.47;;;2.43;;
58214;SDS011;44011;52.218;1.480;2023-08-21T11:58:05;3.47;;;1.40;;
58214;SDS011;44011;52.218;1.480;2023-08-21T12:00:30;3.88;;;1.95;;
58214;SDS011;44011;52.218;1.480;2023-08-21T12:02:59;3.97;;;1.40;;
58214;SDS011;44011;52.218;1.480;2023-08-21T12:05:28;5.20;;;1.50;;
58214;SDS011;44011;52.218;1.480;2023-08-21T12:07:53;2.42;;;1.75;;
58214;SDS011;44011;52.218;1.480;2023-08-21T12:10:22;2.17;;;1.40;;
58214;SDS011;44011;52.218;1.480;2023-08-21T12:12:47;3.47;;;1.25;;
58214;SDS011;44011;52.218;1.480;2023-08-21T12:15:13;2.63;;;1.70;;
58214;SDS011;44011;52.218;1.480;2023-08-21T12:17:38;2.10;;;1.20;;
58214;SDS011;44011;52.218;1.480;2023-08-21T12:20:03;4.55;;;1.50;;
58214;SDS011;44011;52.218;1.480;2023-08-21T12:22:35;3.13;;;1.80;;
58214;SDS011;44011;52.218;1.480;2023-08-21T12:25:00;3.67;;;1.92;;
58214;SDS011;44011;52.218;1.480;2023-08-21T12:27:26;1.63;;;1.53;;
58214;SDS011;44011;52.218;1.480;2023-08-21T12:29:51;2.83;;;1.87;;
58214;SDS011;44011;52.218;1.480;2023-08-21T12:32:16;3.70;;;1.87;;
58214;SDS011;44011;52.218;1.480;2023-08-21T12:34:41;5.78;;;2.13;;
58214;SDS011;44011;52.218;1.480;2023-08-21T12:37:07;3.28;;;2.40;;
58214;SDS011;44011;52.218;1.480;2023-08-21T12:39:32;4.67;;;1.90;;
58214;SDS011;44011;52.218;1.480;2023-08-21T12:41:57;4.03;;;1.70;;
58214;SDS011;44011;52.218;1.480;2023-08-21T12:44:22;4.63;;;2.27;;
58214;SDS011;44011;52.218;1.480;2023-08-21T12:46:48;2.87;;;2.20;;
58214;SDS011;44011;52.218;1.480;2023-08-21T12:49:13;4.47;;;2.27;;
58214;SDS011;44011;52.218;1.480;2023-08-21T12:51:38;3.75;;;2.30;;
58214;SDS011;44011;52.218;1.480;2023-08-21T12:54:03;2.22;;;1.90;;
58214;SDS011;44011;52.218;1.480;2023-08-21T12:56:29;2.40;;;1.73;;
58214;SDS011;44011;52.218;1.480;2023-08-21T12:58:54;3.20;;;1.77;;
58214;SDS011;44011;52.218;1.480;2023-08-21T13:01:19;5.07;;;2.13;;
58214;SDS011;44011;52.218;1.480;2023-08-21T13:03:45;2.58;;;1.38;;
58214;SDS011;44011;52.218;1.480;2023-08-21T13:06:11;3.95;;;1.90;;
58214;SDS011;44011;52.218;1.480;2023-08-21T13:08:36;3.28;;;1.13;;
58214;SDS011;44011;52.218;1.480;2023-08-21T13:11:01;2.33;;;1.50;;
58214;SDS011;44011;52.218;1.480;2023-08-21T13:13:28;6.15;;;1.95;;
58214;SDS011;44011;52.218;1.480;2023-08-21T13:15:53;3.90;;;1.87;;
58214;SDS011;44011;52.218;1.480;2023-08-21T13:18:19;5.95;;;1.80;;
58214;SDS011;44011;52.218;1.480;2023-08-21T13:20:45;2.53;;;1.50;;
58214;SDS011;44011;52.218;1.480;2023-08-21T13:23:10;2.42;;;1.40;;
58214;SDS011;44011;52.218;1.480;2023-08-21T13:25:35;1.80;;;1.47;;
58214;SDS011;44011;52.218;1.480;2023-08-21T13:28:01;4.53;;;2.10;;
58214;SDS011;44011;52.218;1.480;2023-08-21T13:30:28;2.95;;;1.60;;
58214;SDS011;44011;52.218;1.480;2023-08-21T13:32:53;5.32;;;2.17;;
58214;SDS011;44011;52.218;1.480;2023-08-21T13:35:19;3.63;;;1.90;;
58214;SDS011;44011;52.218;1.480;2023-08-21T13:37:45;3.30;;;2.05;;
58214;SDS011;44011;52.218;1.480;2023-08-21T13:40:11;3.43;;;2.07;;
58214;SDS011;44011;52.218;1.480;2023-08-21T13:42:43;5.80;;;2.20;;
58214;SDS011;44011;52.218;1.480;2023-08-21T13:45:12;2.67;;;2.10;;
58214;SDS011;44011;52.218;1.480;2023-08-21T13:47:39;2.85;;;2.42;;
58214;SDS011;44011;52.218;1.480;2023-08-21T13:50:04;3.17;;;2.13;;
58214;SDS011;44011;52.218;1.480;2023-08-21T13:52:30;2.97;;;1.95;;
58214;SDS011;44011;52.218;1.480;2023-08-21T13:54:55;5.75;;;2.50;;
58214;SDS011;44011;52.218;1.480;2023-08-21T13:57:20;3.92;;;1.90;;
58214;SDS011;44011;52.218;1.480;2023-08-21T13:59:46;2.53;;;2.07;;
58214;SDS011;44011;52.218;1.480;2023-08-21T14:02:11;6.20;;;2.40;;
58214;SDS011;44011;52.218;1.480;2023-08-21T14:04:36;4.60;;;2.10;;
58214;SDS011;44011;52.218;1.480;2023-08-21T14:07:02;5.25;;;2.60;;
58214;SDS011;44011;52.218;1.480;2023-08-21T14:09:27;3.67;;;2.17;;
58214;SDS011;44011;52.218;1.480;2023-08-21T14:11:52;3.60;;;2.13;;
58214;SDS011;44011;52.218;1.480;2023-08-21T14:14:17;4.50;;;2.23;;
58214;SDS011;44011;52.218;1.480;2023-08-21T14:16:42;3.97;;;2.40;;
58214;SDS011;44011;52.218;1.480;2023-08-21T14:19:08;4.93;;;2.37;;
58214;SDS011;44011;52.218;1.480;2023-08-21T14:21:33;5.40;;;3.30;;
58214;SDS011;44011;52.218;1.480;2023-08-21T14:23:58;3.80;;;2.23;;
58214;SDS011;44011;52.218;1.480;2023-08-21T14:26:23;2.93;;;2.07;;
58214;SDS011;44011;52.218;1.480;2023-08-21T14:28:48;9.40;;;4.10;;
58214;SDS011;44011;52.218;1.480;2023-08-21T14:31:15;6.93;;;4.30;;
58214;SDS011;44011;52.218;1.480;2023-08-21T14:33:41;8.77;;;4.03;;
58214;SDS011;44011;52.218;1.480;2023-08-21T14:36:06;9.00;;;4.17;;
58214;SDS011;44011;52.218;1.480;2023-08-21T14:38:31;5.50;;;4.43;;
58214;SDS011;44011;52.218;1.480;2023-08-21T14:40:57;5.13;;;4.30;;
58214;SDS011;44011;52.218;1.480;2023-08-21T14:43:23;8.38;;;4.43;;
58214;SDS011;44011;52.218;1.480;2023-08-21T14:45:48;15.43;;;5.18;;
58214;SDS011;44011;52.218;1.480;2023-08-21T14:48:13;5.70;;;4.50;;
58214;SDS011;44011;52.218;1.480;2023-08-21T14:50:38;8.33;;;4.60;;